Time;durP1;ratioP1;P1;durP2;ratioP2;P2;SDS_P1;SDS_P2;PMS_P1;PMS_P2;Temp;Humidity;BMP_temperature;BMP_pressure;BME280_temperature;BME280_humidity;BME280_pressure;Samples;Min_cycle;Max_cycle;Signal;HPM_P1;HPM_P2
2021/12/21 00:00:47;;;;;;;3.23;2.47;;;2.70;74.20;2.40;97042.00;;;;5063206;28;20435;-89
2021/12/21 00:03:15;;;;;;;5.90;3.20;;;2.70;74.20;2.40;97037.00;;;;5070525;28;20464;-86
2021/12/21 00:05:45;;;;;;;4.10;3.33;;;2.70;74.30;2.40;97034.00;;;;5070136;28;20565;-88
2021/12/21 00:08:13;;;;;;;5.93;2.90;;;2.70;74.30;2.40;97038.00;;;;5071085;28;20572;-90
2021/12/21 00:10:45;;;;;;;3.33;2.83;;;2.70;74.30;2.40;97031.00;;;;5070818;28;20524;-89
2021/12/21 00:13:25;;;;;;;4.17;2.73;;;2.70;74.40;2.40;97031.00;;;;5065624;28;20435;-91
2021/12/21 00:15:59;;;;;;;3.20;2.53;;;2.70;74.40;2.40;97033.00;;;;5070486;28;20872;-90
2021/12/21 00:18:37;;;;;;;3.47;2.80;;;2.70;74.40;2.40;97029.00;;;;5063553;28;20458;-91
2021/12/21 00:21:12;;;;;;;4.97;3.13;;;2.70;74.30;2.30;97030.00;;;;5048365;28;20427;-88
2021/12/21 00:23:42;;;;;;;5.17;2.80;;;2.60;74.10;2.30;97031.00;;;;5060528;28;20450;-89
2021/12/21 00:26:12;;;;;;;4.70;2.50;;;2.60;74.10;2.30;97040.00;;;;5071449;28;20885;-88
2021/12/21 00:28:50;;;;;;;4.87;2.83;;;2.60;74.00;2.30;97040.00;;;;5064069;28;20458;-90
2021/12/21 00:31:17;;;;;;;4.73;2.80;;;2.60;74.00;2.30;97033.00;;;;5074518;28;20461;-89
2021/12/21 00:33:46;;;;;;;4.23;2.97;;;2.60;74.00;2.20;97027.00;;;;5071969;28;20438;-87
2021/12/21 00:36:18;;;;;;;4.27;3.37;;;2.60;74.10;2.20;97029.00;;;;5054568;28;20866;-90
2021/12/21 00:38:46;;;;;;;3.03;2.77;;;2.60;74.10;2.20;97027.00;;;;5069133;28;20514;-89
2021/12/21 00:41:13;;;;;;;7.17;4.10;;;2.70;74.20;2.20;97027.00;;;;5079519;28;20441;-89
2021/12/21 00:43:41;;;;;;;4.00;2.83;;;2.60;74.10;2.20;97022.00;;;;5074660;28;20450;-89
2021/12/21 00:46:09;;;;;;;3.80;2.57;;;2.50;74.10;2.20;97024.00;;;;5068273;28;20482;-89
2021/12/21 00:48:37;;;;;;;4.20;3.07;;;2.50;74.00;2.20;97021.00;;;;5071270;28;20521;-90
2021/12/21 00:51:07;;;;;;;4.00;2.60;;;2.50;74.00;2.10;97011.00;;;;5057770;28;20443;-90
2021/12/21 00:53:37;;;;;;;3.53;2.57;;;2.50;73.80;2.10;97007.00;;;;5054627;28;20453;-85
2021/12/21 00:56:05;;;;;;;4.40;3.17;;;2.50;73.90;2.10;97011.00;;;;5070138;28;20445;-90
2021/12/21 00:58:32;;;;;;;4.17;2.93;;;2.50;74.00;2.10;97012.00;;;;5072655;28;20477;-91
2021/12/21 01:01:03;;;;;;;4.00;2.77;;;2.40;73.90;2.10;97010.00;;;;5074320;28;20443;-91
2021/12/21 01:03:30;;;;;;;4.53;2.90;;;2.40;73.80;2.00;97009.00;;;;5064267;28;20453;-91
2021/12/21 01:06:05;;;;;;;4.07;3.10;;;2.40;73.80;2.00;97000.00;;;;5073579;28;20850;-91
2021/12/21 01:08:43;;;;;;;6.27;3.30;;;2.40;73.80;2.00;97008.00;;;;5069684;28;20477;-91
2021/12/21 01:11:16;;;;;;;2.93;2.73;;;2.30;73.60;2.00;96996.00;;;;5075308;28;20991;-91
2021/12/21 01:13:54;;;;;;;3.07;2.73;;;3.70;74.60;1.90;96996.00;;;;5074541;28;20442;-89
2021/12/21 01:16:29;;;;;;;4.03;2.73;;;2.30;73.90;1.90;96983.00;;;;5072955;28;20806;-90
2021/12/21 01:19:11;;;;;;;4.10;3.03;;;2.30;73.80;1.90;96987.00;;;;5071285;28;20446;-91
2021/12/21 01:21:46;;;;;;;4.80;2.57;;;2.30;73.90;1.90;96986.00;;;;5070319;28;20462;-91
2021/12/21 01:24:32;;;;;;;4.47;2.70;;;2.30;73.80;1.90;96987.00;;;;5055448;28;20431;-89
2021/12/21 01:27:14;;;;;;;4.10;2.90;;;2.30;73.70;1.90;96992.00;;;;5060069;28;20478;-90
2021/12/21 01:29:50;;;;;;;2.87;2.50;;;2.20;73.60;1.80;96983.00;;;;5074340;28;20886;-91
2021/12/21 01:32:27;;;;;;;4.50;2.90;;;2.20;73.60;1.80;96973.00;;;;5073946;28;20528;-89
2021/12/21 01:35:00;;;;;;;3.57;3.27;;;2.20;73.60;1.80;96976.00;;;;5074001;28;20461;-90
2021/12/21 01:37:39;;;;;;;2.90;2.70;;;2.20;73.60;1.80;96968.00;;;;5075347;28;20504;-90
2021/12/21 01:43:25;;;;;;;3.83;3.07;;;2.10;73.50;1.70;96974.00;;;;5052158;28;20434;-90
2021/12/21 01:51:23;;;;;;;4.70;3.00;;;2.10;73.70;1.60;96970.00;;;;5056194;28;20438;-91
2021/12/21 01:53:51;;;;;;;3.70;2.50;;;2.00;73.60;1.60;96958.00;;;;5054343;28;20438;-91
2021/12/21 01:56:19;;;;;;;5.17;3.30;;;2.00;73.80;1.60;96960.00;;;;5070539;28;20480;-91
2021/12/21 01:58:48;;;;;;;5.67;3.40;;;2.00;73.90;1.60;96953.00;;;;5068826;28;20471;-92
2021/12/21 02:01:20;;;;;;;4.07;3.47;;;2.10;74.10;1.60;96949.00;;;;5072148;28;20500;-89
2021/12/21 02:03:48;;;;;;;5.67;3.20;;;2.00;74.10;1.60;96947.00;;;;5081982;28;20482;-91
2021/12/21 02:06:17;;;;;;;3.77;3.10;;;2.00;74.20;1.60;96947.00;;;;5077826;28;21070;-89
2021/12/21 02:08:45;;;;;;;3.30;3.00;;;2.00;74.20;1.60;96936.00;;;;5077846;28;20988;-91
2021/12/21 02:11:13;;;;;;;3.43;3.13;;;2.00;74.20;1.60;96942.00;;;;5075996;28;20521;-91
2021/12/21 02:13:46;;;;;;;5.33;3.20;;;2.00;74.20;1.60;96941.00;;;;5072175;28;20454;-92
2021/12/21 02:16:19;;;;;;;4.87;3.63;;;2.00;74.30;1.60;96939.00;;;;5065612;28;20460;-90
2021/12/21 02:18:52;;;;;;;4.47;3.40;;;2.00;74.30;1.60;96941.00;;;;5067014;28;21398;-87
2021/12/21 02:21:28;;;;;;;4.63;3.53;;;1.90;74.20;1.60;96939.00;;;;5058564;28;20446;-91
2021/12/21 02:24:00;;;;;;;5.40;3.20;;;2.00;74.40;1.60;96936.00;;;;5068311;28;20454;-91
2021/12/21 02:26:46;;;;;;;4.67;3.27;;;2.00;74.50;1.60;96938.00;;;;5063072;28;21074;-88
2021/12/21 02:29:16;;;;;;;4.67;3.83;;;1.90;74.40;1.60;96925.00;;;;5068352;28;20442;-92
2021/12/21 02:31:49;;;;;;;4.13;3.13;;;2.00;74.60;1.60;96916.00;;;;5063237;28;20458;-91
2021/12/21 02:34:18;;;;;;;4.87;3.27;;;1.90;74.50;1.60;96918.00;;;;5073230;28;20450;-90
2021/12/21 02:36:51;;;;;;;5.57;3.70;;;1.90;74.40;1.60;96918.00;;;;5076490;28;20449;-91
2021/12/21 02:39:20;;;;;;;3.50;3.20;;;2.00;74.50;1.60;96915.00;;;;5065240;28;20876;-90
2021/12/21 02:41:48;;;;;;;3.47;3.07;;;1.90;74.40;1.60;96911.00;;;;5052883;28;20834;-89
2021/12/21 02:44:16;;;;;;;5.17;3.50;;;1.90;74.50;1.60;96921.00;;;;5064906;28;20477;-90
2021/12/21 02:46:45;;;;;;;4.90;3.60;;;1.90;74.40;1.60;96920.00;;;;5079680;28;20568;-91
2021/12/21 02:49:14;;;;;;;4.90;3.57;;;1.90;74.40;1.60;96909.00;;;;5075233;28;20450;-90
2021/12/21 02:51:44;;;;;;;4.20;3.70;;;1.90;74.40;1.60;96907.00;;;;5056393;28;20486;-90
2021/12/21 02:54:15;;;;;;;3.83;3.20;;;1.90;75.10;1.50;96907.00;;;;5071226;28;20464;-88
2021/12/21 02:56:43;;;;;;;5.60;3.90;;;1.90;74.40;1.50;96918.00;;;;5071163;28;20446;-89
2021/12/21 02:59:19;;;;;;;5.00;4.13;;;1.90;74.30;1.50;96920.00;;;;5119641;22;20585;-84
2021/12/21 03:01:49;;;;;;;4.30;3.90;;;1.90;74.40;1.50;96913.00;;;;5078676;28;20477;-84
2021/12/21 03:04:22;;;;;;;6.83;4.13;;;1.90;74.50;1.50;96922.00;;;;5094811;28;20437;-84
2021/12/21 03:10:08;;;;;;;5.73;4.00;;;1.90;74.50;1.50;96902.00;;;;5097740;28;20468;-82
2021/12/21 03:16:09;;;;;;;6.17;4.10;;;1.90;74.60;1.50;96907.00;;;;5091335;28;20523;-83
2021/12/21 03:18:56;;;;;;;6.93;4.43;;;1.90;74.70;1.50;96916.00;;;;5071595;28;20478;-83
2021/12/21 03:21:25;;;;;;;8.40;4.33;;;1.90;74.80;1.50;96913.00;;;;5076302;28;20438;-83
2021/12/21 03:24:07;;;;;;;6.30;4.37;;;1.90;74.90;1.50;96911.00;;;;5079611;28;20454;-83
2021/12/21 03:26:58;;;;;;;5.23;4.03;;;1.90;75.00;1.50;96915.00;;;;5075844;28;20921;-83
2021/12/21 03:29:38;;;;;;;4.00;3.60;;;1.90;75.00;1.50;96909.00;;;;5067667;28;20552;-83
2021/12/21 03:32:18;;;;;;;4.63;4.00;;;1.90;75.20;1.50;96900.00;;;;5089099;28;20446;-83
2021/12/21 03:34:53;;;;;;;5.80;4.33;;;1.90;75.40;1.50;96900.00;;;;5077099;28;20437;-83
2021/12/21 03:37:31;;;;;;;5.27;4.20;;;1.90;75.50;1.50;96902.00;;;;5076260;28;20468;-84
2021/12/21 03:40:07;;;;;;;5.80;3.63;;;1.90;75.50;1.50;96898.00;;;;5076475;28;20563;-83
2021/12/21 03:42:36;;;;;;;4.50;3.60;;;1.90;75.60;1.60;96892.00;;;;5074418;28;20501;-84
2021/12/21 03:45:05;;;;;;;4.33;3.70;;;1.90;75.60;1.60;96893.00;;;;5075037;28;20988;-84
2021/12/21 03:47:32;;;;;;;5.87;4.27;;;1.90;75.60;1.60;96900.00;;;;5076195;28;20480;-83
2021/12/21 03:50:01;;;;;;;3.90;3.53;;;1.90;75.60;1.60;96890.00;;;;5077021;28;20856;-83
2021/12/21 03:52:30;;;;;;;4.93;4.07;;;1.90;75.60;1.60;96903.00;;;;5075282;28;20434;-83
2021/12/21 03:55:01;;;;;;;5.73;3.83;;;2.00;75.80;1.60;96907.00;;;;5090071;28;20577;-83
2021/12/21 03:57:34;;;;;;;5.07;3.90;;;1.90;75.80;1.70;96902.00;;;;5074921;28;20473;-84
2021/12/21 04:00:16;;;;;;;4.73;3.80;;;1.90;75.80;1.70;96901.00;;;;5077940;28;20442;-83
2021/12/21 04:02:52;;;;;;;7.80;3.80;;;2.00;75.90;1.70;96894.00;;;;5067225;28;20470;-83
2021/12/21 04:05:22;;;;;;;5.27;3.60;;;2.00;76.00;1.70;96889.00;;;;5057896;28;20536;-83
2021/12/21 04:07:52;;;;;;;4.40;3.77;;;2.00;76.80;1.70;96888.00;;;;5081169;28;20489;-83
2021/12/21 04:10:32;;;;;;;5.13;3.80;;;2.00;75.90;1.70;96894.00;;;;5074437;28;20476;-83
2021/12/21 04:13:10;;;;;;;4.70;3.20;;;2.00;75.90;1.70;96891.00;;;;5070531;28;20852;-83
2021/12/21 04:15:43;;;;;;;4.47;3.33;;;2.00;75.80;1.70;96896.00;;;;5074320;28;20941;-83
2021/12/21 04:18:23;;;;;;;3.97;2.90;;;2.00;75.80;1.70;96889.00;;;;5083706;28;20467;-83
2021/12/21 04:20:51;;;;;;;3.00;2.80;;;2.00;75.90;1.70;96889.00;;;;5091732;28;20448;-84
2021/12/21 04:23:19;;;;;;;4.50;3.20;;;2.00;75.80;1.70;96883.00;;;;5071955;28;20580;-84
2021/12/21 04:25:46;;;;;;;3.53;3.23;;;2.10;75.90;1.70;96892.00;;;;5072410;28;20453;-83
2021/12/21 04:28:16;;;;;;;3.37;3.07;;;2.10;75.90;1.70;96896.00;;;;5067053;28;20570;-83
2021/12/21 04:30:48;;;;;;;4.50;3.13;;;2.10;75.90;1.70;96890.00;;;;5052521;28;20446;-83
2021/12/21 04:33:24;;;;;;;5.53;2.97;;;2.10;75.90;1.80;96885.00;;;;5067169;28;20719;-83
2021/12/21 04:35:57;;;;;;;5.00;3.37;;;2.10;75.90;1.80;96892.00;;;;5073889;28;20473;-83
2021/12/21 04:38:36;;;;;;;4.00;3.00;;;2.10;75.90;1.70;96890.00;;;;5072093;28;21026;-81
2021/12/21 04:41:14;;;;;;;3.50;3.20;;;2.10;75.90;1.80;96894.00;;;;5078508;28;20448;-83
2021/12/21 04:43:52;;;;;;;4.50;3.13;;;2.10;75.80;1.80;96901.00;;;;5057101;28;20457;-83
2021/12/21 04:46:25;;;;;;;3.77;3.33;;;2.10;75.80;1.80;96904.00;;;;5071178;28;20448;-82
2021/12/21 04:48:55;;;;;;;4.77;3.23;;;2.10;75.80;1.80;96909.00;;;;5074176;28;21017;-83
2021/12/21 04:51:31;;;;;;;4.03;3.63;;;2.10;75.80;1.80;96898.00;;;;5074123;28;20472;-83
2021/12/21 04:54:00;;;;;;;4.83;3.93;;;2.10;75.80;1.80;96900.00;;;;5083137;28;20431;-82
2021/12/21 04:56:31;;;;;;;4.50;3.37;;;2.10;75.80;1.80;96903.00;;;;5074954;28;20444;-83
2021/12/21 04:59:07;;;;;;;4.40;3.50;;;2.10;75.80;1.80;96903.00;;;;5068262;28;20528;-82
2021/12/21 05:01:46;;;;;;;3.97;3.60;;;2.10;75.80;1.80;96901.00;;;;5067045;28;20476;-82
2021/12/21 05:04:13;;;;;;;4.73;3.67;;;2.10;75.70;1.80;96906.00;;;;5078756;28;20442;-83
2021/12/21 05:06:40;;;;;;;4.70;3.90;;;2.10;75.80;1.80;96903.00;;;;5073947;28;20485;-83
2021/12/21 05:09:13;;;;;;;5.47;3.83;;;2.10;75.70;1.80;96899.00;;;;5089313;28;20492;-83
2021/12/21 05:11:44;;;;;;;6.27;4.20;;;2.10;75.70;1.80;96899.00;;;;5071842;28;20450;-84
2021/12/21 05:14:12;;;;;;;4.57;3.97;;;2.10;75.60;1.80;96900.00;;;;5076243;28;20445;-84
2021/12/21 05:16:43;;;;;;;4.10;3.70;;;2.10;75.50;1.70;96901.00;;;;5079445;28;20441;-83
2021/12/21 05:19:17;;;;;;;4.37;3.60;;;2.10;75.60;1.70;96903.00;;;;5095626;28;20479;-83
2021/12/21 05:21:45;;;;;;;4.60;4.20;;;2.10;75.60;1.70;96910.00;;;;5086155;28;20449;-83
2021/12/21 05:24:12;;;;;;;4.27;3.47;;;2.10;75.50;1.70;96910.00;;;;5076764;28;20456;-83
2021/12/21 05:26:48;;;;;;;4.40;3.67;;;2.00;75.40;1.70;96921.00;;;;5075581;28;20430;-83
2021/12/21 05:29:16;;;;;;;5.07;4.17;;;2.10;75.60;1.70;96921.00;;;;5058627;28;20490;-83
2021/12/21 05:31:47;;;;;;;4.80;4.30;;;2.10;75.50;1.70;96923.00;;;;5079796;28;20481;-83
2021/12/21 05:34:14;;;;;;;6.33;3.90;;;2.10;75.50;1.70;96915.00;;;;5082177;28;20450;-83
2021/12/21 05:36:42;;;;;;;5.87;4.00;;;2.00;75.60;1.70;96908.00;;;;5097142;28;20434;-83
2021/12/21 05:39:17;;;;;;;7.03;4.40;;;2.00;75.70;1.70;96906.00;;;;5094271;28;20479;-83
2021/12/21 05:41:50;;;;;;;6.10;4.20;;;2.00;75.70;1.60;96908.00;;;;5079583;28;20500;-84
2021/12/21 05:44:20;;;;;;;5.47;3.77;;;2.00;75.60;1.70;96915.00;;;;5068513;28;20863;-83
2021/12/21 05:46:55;;;;;;;6.03;3.70;;;2.00;75.60;1.70;96920.00;;;;5072825;28;20453;-83
2021/12/21 05:49:50;;;;;;;4.03;3.63;;;2.00;75.60;1.60;96919.00;;;;5083875;28;20961;-84
2021/12/21 05:55:39;;;;;;;4.93;3.40;;;2.00;75.60;1.60;96916.00;;;;5070736;28;20856;-83
2021/12/21 05:58:18;;;;;;;4.53;3.77;;;2.00;75.60;1.60;96919.00;;;;5075858;28;20490;-83
2021/12/21 06:00:57;;;;;;;4.07;3.63;;;2.00;76.30;1.60;96923.00;;;;5071864;28;20438;-82
2021/12/21 06:03:44;;;;;;;4.03;3.60;;;2.00;75.70;1.50;96916.00;;;;5082438;28;20873;-84
2021/12/21 06:06:26;;;;;;;5.03;4.03;;;1.90;75.70;1.60;96914.00;;;;5076634;28;20445;-84
2021/12/21 06:11:48;;;;;;;4.17;3.73;;;1.90;75.60;1.50;96918.00;;;;5086886;28;20450;-84
2021/12/21 06:14:50;;;;;;;6.50;3.97;;;1.90;75.60;1.50;96929.00;;;;5089303;28;20472;-85
2021/12/21 06:23:28;;;;;;;6.57;3.70;;;1.90;75.70;1.50;96928.00;;;;5075057;28;20938;-83
2021/12/21 06:26:07;;;;;;;4.43;3.90;;;1.90;75.80;1.50;96923.00;;;;5063661;28;20438;-84
2021/12/21 06:28:50;;;;;;;3.57;3.13;;;1.90;75.80;1.50;96923.00;;;;5057093;28;20486;-84
2021/12/21 06:31:21;;;;;;;4.80;3.40;;;1.90;75.80;1.50;96928.00;;;;5077932;28;20524;-83
2021/12/21 06:33:53;;;;;;;4.87;3.60;;;1.80;75.80;1.50;96921.00;;;;5078635;28;20489;-84
2021/12/21 06:36:36;;;;;;;5.00;4.07;;;1.90;75.90;1.50;96917.00;;;;5081489;28;20446;-84
2021/12/21 06:39:05;;;;;;;5.03;3.93;;;1.90;75.90;1.50;96925.00;;;;5076290;28;20488;-84
2021/12/21 06:41:38;;;;;;;5.60;3.90;;;1.90;75.80;1.50;96922.00;;;;5093383;28;20484;-84
2021/12/21 06:44:12;;;;;;;4.60;3.83;;;1.80;75.80;1.50;96920.00;;;;5091282;28;20470;-83
2021/12/21 06:47:09;;;;;;;7.30;4.77;;;1.90;75.80;1.50;96915.00;;;;5081872;28;20453;-83
2021/12/21 06:52:32;;;;;;;4.37;3.97;;;1.90;75.90;1.50;96919.00;;;;5080331;28;20582;-85
2021/12/21 06:55:00;;;;;;;4.53;3.73;;;1.90;75.80;1.50;96922.00;;;;5069395;28;20804;-85
2021/12/21 06:57:28;;;;;;;4.23;3.77;;;1.80;75.80;1.50;96917.00;;;;5074139;28;20507;-84
2021/12/21 06:59:55;;;;;;;5.33;4.20;;;1.90;75.90;1.50;96928.00;;;;5066622;28;20457;-84
2021/12/21 07:02:23;;;;;;;4.97;3.90;;;1.90;75.80;1.50;96914.00;;;;5067041;28;20446;-83
2021/12/21 07:04:57;;;;;;;4.73;4.33;;;1.80;75.80;1.50;96919.00;;;;5074398;28;20896;-83
2021/12/21 07:07:27;;;;;;;4.77;4.20;;;1.90;76.00;1.60;96912.00;;;;5075945;28;20474;-83
2021/12/21 07:10:00;;;;;;;4.83;4.33;;;1.90;76.10;1.60;96915.00;;;;5077259;28;20491;-84
2021/12/21 07:18:00;;;;;;;6.27;4.00;;;1.90;76.10;1.70;96914.00;;;;5083299;28;20562;-83
2021/12/21 07:18:24;;;;;;;5.70;4.50;;;1.90;76.00;1.70;96917.00;;;;5078806;28;20455;-83
2021/12/21 07:20:52;;;;;;;4.63;4.23;;;1.90;76.20;1.80;96911.00;;;;5096537;28;20437;-83
2021/12/21 07:23:23;;;;;;;4.47;4.10;;;1.90;76.20;1.80;96915.00;;;;5076335;28;20464;-83
2021/12/21 07:25:50;;;;;;;7.50;5.13;;;1.90;76.10;1.80;96914.00;;;;5068615;28;20445;-83
2021/12/21 07:28:17;;;;;;;5.47;4.53;;;1.90;76.10;1.80;96914.00;;;;5067632;28;20474;-83
2021/12/21 07:30:47;;;;;;;4.70;4.17;;;1.90;76.20;1.80;96920.00;;;;5075693;28;20477;-84
2021/12/21 07:33:17;;;;;;;6.57;4.53;;;1.90;76.20;1.90;96922.00;;;;5077421;28;20458;-84
2021/12/21 07:35:44;;;;;;;5.30;4.47;;;2.00;76.10;1.90;96921.00;;;;5069054;28;20450;-87
2021/12/21 07:38:11;;;;;;;5.57;4.70;;;2.00;76.10;1.90;96921.00;;;;5070183;28;20548;-85
2021/12/21 07:40:40;;;;;;;6.83;4.43;;;2.00;76.10;1.90;96921.00;;;;5050740;28;20458;-84
2021/12/21 07:43:10;;;;;;;4.33;3.93;;;2.00;76.10;1.90;96918.00;;;;5071916;28;20430;-86
2021/12/21 07:45:40;;;;;;;5.03;4.43;;;2.00;76.00;1.90;96915.00;;;;5070241;28;20449;-88
2021/12/21 07:48:27;;;;;;;4.63;4.23;;;2.00;76.10;1.90;96917.00;;;;5072729;28;20474;-87
2021/12/21 07:51:09;;;;;;;4.83;4.30;;;2.00;76.10;1.90;96921.00;;;;5067386;28;20450;-87
2021/12/21 07:53:39;;;;;;;5.97;4.50;;;2.00;76.10;2.00;96919.00;;;;5062292;28;20445;-85
2021/12/21 07:56:08;;;;;;;5.87;4.50;;;2.00;76.10;2.00;96918.00;;;;5093479;28;20442;-84
2021/12/21 07:58:42;;;;;;;4.93;4.30;;;2.00;76.10;2.00;96916.00;;;;5087185;28;20480;-85
2021/12/21 08:01:12;;;;;;;6.70;4.50;;;2.10;76.30;2.00;96923.00;;;;5085926;28;20753;-84
2021/12/21 08:03:46;;;;;;;4.60;4.10;;;2.10;76.40;2.10;96915.00;;;;5084432;28;20465;-83
2021/12/21 08:06:15;;;;;;;6.77;4.90;;;2.10;76.30;2.10;96915.00;;;;5080398;28;20469;-83
2021/12/21 08:08:45;;;;;;;4.83;4.03;;;2.10;76.30;2.10;96918.00;;;;5076666;28;20482;-84
2021/12/21 08:11:17;;;;;;;5.27;4.27;;;2.10;76.20;2.10;96919.00;;;;5081212;28;20503;-84
2021/12/21 08:14:09;;;;;;;4.93;4.07;;;2.20;76.30;2.20;96930.00;;;;5075867;28;21045;-83
2021/12/21 08:16:38;;;;;;;4.93;4.47;;;2.20;76.30;2.20;96929.00;;;;5073282;28;20449;-84
2021/12/21 08:19:05;;;;;;;5.87;4.30;;;2.20;76.30;2.20;96925.00;;;;5067930;28;20458;-84
2021/12/21 08:21:41;;;;;;;4.40;3.90;;;2.30;76.40;2.20;96927.00;;;;5085033;28;20548;-84
2021/12/21 08:24:14;;;;;;;4.80;4.40;;;2.30;76.40;2.30;96928.00;;;;5063452;28;20446;-84
2021/12/21 08:26:50;;;;;;;5.13;4.30;;;2.30;76.50;2.30;96938.00;;;;5077951;28;20859;-84
2021/12/21 08:29:17;;;;;;;5.13;4.60;;;2.40;76.70;2.30;96936.00;;;;5071270;28;20842;-84
2021/12/21 08:31:44;;;;;;;5.80;4.47;;;2.40;77.40;2.40;96942.00;;;;5073552;28;20462;-84
2021/12/21 08:34:12;;;;;;;5.10;4.60;;;2.40;76.80;2.50;96936.00;;;;5077916;28;20805;-84
2021/12/21 08:36:39;;;;;;;5.33;4.60;;;2.50;76.80;2.50;96940.00;;;;5070575;28;20475;-84
2021/12/21 08:39:07;;;;;;;5.47;4.70;;;2.50;76.80;2.60;96931.00;;;;5075916;28;20540;-84
2021/12/21 08:41:39;;;;;;;5.57;4.60;;;2.60;76.90;2.60;96935.00;;;;5077166;28;20795;-84
2021/12/21 08:44:12;;;;;;;5.63;4.47;;;2.60;76.90;2.70;96941.00;;;;5077446;28;21000;-84
2021/12/21 08:46:41;;;;;;;5.03;4.53;;;2.70;76.80;2.70;96942.00;;;;5073253;28;20450;-84
2021/12/21 08:49:09;;;;;;;5.47;4.63;;;2.70;76.80;2.70;96946.00;;;;5084865;28;20516;-84
2021/12/21 08:51:38;;;;;;;5.07;4.57;;;2.70;76.90;2.80;96951.00;;;;5080738;28;20484;-84
2021/12/21 08:54:07;;;;;;;5.63;4.90;;;2.80;76.90;2.80;96938.00;;;;5096856;28;20456;-84
2021/12/21 08:56:37;;;;;;;5.67;4.93;;;2.80;77.00;2.90;96949.00;;;;5073627;28;20543;-83
2021/12/21 08:59:05;;;;;;;5.33;4.73;;;2.90;77.00;2.90;96941.00;;;;5079315;28;20473;-83
2021/12/21 09:01:33;;;;;;;5.40;4.53;;;2.90;77.10;2.90;96942.00;;;;5109141;22;20495;-80
2021/12/21 09:04:00;;;;;;;5.30;4.80;;;2.90;77.10;3.00;96934.00;;;;5088748;28;20465;-80
2021/12/21 09:06:27;;;;;;;5.23;4.67;;;3.00;77.10;3.00;96941.00;;;;5086436;28;20449;-81
2021/12/21 09:08:54;;;;;;;6.33;4.73;;;3.00;77.20;3.10;96939.00;;;;5108278;28;20476;-80
2021/12/21 09:11:21;;;;;;;5.67;5.17;;;3.10;77.20;3.10;96948.00;;;;5099772;28;20459;-81
2021/12/21 09:13:48;;;;;;;6.13;4.80;;;3.10;77.20;3.20;96955.00;;;;5099511;28;20429;-81
2021/12/21 09:16:17;;;;;;;5.23;4.73;;;3.20;77.30;3.20;96954.00;;;;5096238;28;20449;-79
2021/12/21 09:18:50;;;;;;;5.23;4.73;;;3.20;77.20;3.30;96960.00;;;;5092206;28;20962;-80
2021/12/21 09:21:17;;;;;;;5.10;4.60;;;3.30;77.20;3.30;96960.00;;;;5087952;28;20453;-79
2021/12/21 09:23:44;;;;;;;5.30;4.83;;;3.20;77.20;3.40;96957.00;;;;5101136;28;20795;-79
2021/12/21 09:26:11;;;;;;;5.63;4.90;;;3.40;77.30;3.40;96950.00;;;;5095097;28;20437;-80
2021/12/21 09:28:38;;;;;;;5.50;5.00;;;3.40;77.40;3.40;96951.00;;;;5095130;28;20492;-80
2021/12/21 09:31:05;;;;;;;5.33;4.83;;;3.40;77.30;3.50;96963.00;;;;5094159;28;20453;-80
2021/12/21 09:33:32;;;;;;;5.43;4.63;;;3.50;77.40;3.50;96953.00;;;;5092954;28;20433;-80
2021/12/21 09:36:00;;;;;;;5.43;4.87;;;3.60;77.30;3.60;96956.00;;;;5094536;28;20961;-80
2021/12/21 09:38:27;;;;;;;5.77;5.20;;;3.60;77.30;3.70;96949.00;;;;5094727;28;20457;-80
2021/12/21 09:40:55;;;;;;;5.63;5.13;;;3.70;77.30;3.70;96953.00;;;;5094915;28;20444;-82
2021/12/21 09:43:22;;;;;;;5.07;4.33;;;3.70;77.30;3.80;96960.00;;;;5094393;28;20786;-80
2021/12/21 09:45:50;;;;;;;5.43;4.93;;;3.80;77.40;3.90;96958.00;;;;5093953;28;20195;-81
2021/12/21 09:48:22;;;;;;;5.10;4.63;;;3.90;77.70;4.00;96954.00;;;;5094243;28;20272;-80
2021/12/21 09:50:49;;;;;;;5.23;4.73;;;4.00;77.90;4.10;96952.00;;;;5096912;28;20194;-83
2021/12/21 09:53:18;;;;;;;6.20;5.47;;;4.10;78.20;4.30;96946.00;;;;5094774;28;20195;-81
2021/12/21 09:55:48;;;;;;;6.70;5.17;;;4.30;79.40;4.40;96950.00;;;;5094320;28;21018;-81
2021/12/21 09:58:16;;;;;;;5.50;5.00;;;4.50;79.40;4.60;96955.00;;;;5088441;28;20334;-80
2021/12/21 10:00:43;;;;;;;6.87;5.83;;;4.70;79.80;4.70;96948.00;;;;5107799;28;20198;-82
2021/12/21 10:03:10;;;;;;;6.20;5.37;;;4.90;80.10;4.90;96948.00;;;;5079511;28;20195;-80
2021/12/21 10:05:42;;;;;;;8.10;5.20;;;5.10;80.00;5.00;96946.00;;;;5085569;28;20196;-83
2021/12/21 10:08:12;;;;;;;8.03;5.50;;;5.30;80.00;5.20;96945.00;;;;5087933;28;20597;-80
2021/12/21 10:10:42;;;;;;;6.83;5.27;;;5.50;79.70;5.30;96939.00;;;;5092761;28;20191;-80
2021/12/21 10:13:13;;;;;;;6.00;4.93;;;5.70;79.20;5.50;96932.00;;;;5093423;28;20198;-81
2021/12/21 10:15:45;;;;;;;5.57;4.80;;;5.90;79.20;5.60;96938.00;;;;5091935;28;20599;-80
2021/12/21 10:18:13;;;;;;;5.00;4.60;;;6.10;79.00;5.70;96938.00;;;;5099261;28;20206;-81
2021/12/21 10:20:43;;;;;;;6.37;5.13;;;6.20;78.70;5.90;96936.00;;;;5114682;28;20190;-80
2021/12/21 10:23:14;;;;;;;6.97;5.10;;;6.40;78.30;6.00;96937.00;;;;5113821;28;20197;-81
2021/12/21 10:25:47;;;;;;;6.47;4.80;;;6.50;78.10;6.10;96935.00;;;;5118863;28;20195;-80
2021/12/21 10:28:34;;;;;;;5.00;4.50;;;6.60;77.70;6.30;96928.00;;;;5115296;28;20265;-81
2021/12/21 10:31:05;;;;;;;4.87;4.37;;;6.80;77.30;6.40;96939.00;;;;5108400;28;20198;-80
2021/12/21 10:33:33;;;;;;;6.00;5.20;;;6.90;77.40;6.50;96936.00;;;;5104915;28;20234;-80
2021/12/21 10:36:04;;;;;;;6.20;4.70;;;6.90;76.90;6.50;96929.00;;;;5082308;28;20192;-81
2021/12/21 10:38:35;;;;;;;5.17;4.67;;;7.00;75.90;6.60;96929.00;;;;5074990;28;20216;-80
2021/12/21 10:41:13;;;;;;;4.93;4.53;;;7.00;75.00;6.60;96929.00;;;;5094204;28;20195;-82
2021/12/21 10:43:40;;;;;;;4.57;4.17;;;6.90;74.20;6.50;96925.00;;;;5094115;28;20188;-80
2021/12/21 10:46:08;;;;;;;5.93;4.87;;;6.90;74.00;6.50;96922.00;;;;5088681;28;20199;-83
2021/12/21 10:48:37;;;;;;;5.63;4.30;;;6.80;73.60;6.40;96929.00;;;;5081022;28;20470;-80
2021/12/21 10:51:11;;;;;;;6.33;4.73;;;6.70;73.50;6.40;96935.00;;;;5094294;28;20648;-80
2021/12/21 10:53:45;;;;;;;6.30;4.80;;;6.60;73.40;6.30;96932.00;;;;5088439;28;20192;-82
2021/12/21 10:56:17;;;;;;;5.73;4.80;;;6.50;73.40;6.30;96922.00;;;;5077669;28;20637;-80
2021/12/21 10:58:46;;;;;;;5.57;5.07;;;6.50;73.50;6.20;96933.00;;;;5100971;28;20221;-82
2021/12/21 11:01:19;;;;;;;6.10;4.97;;;6.40;73.50;6.20;96933.00;;;;5105031;28;20605;-80
2021/12/21 11:03:52;;;;;;;5.60;5.00;;;6.30;73.70;6.20;96928.00;;;;5102768;28;20233;-80
2021/12/21 11:06:23;;;;;;;5.33;4.80;;;6.20;73.60;6.10;96931.00;;;;5098899;28;20188;-81
2021/12/21 11:08:55;;;;;;;7.00;4.47;;;6.20;73.80;6.10;96928.00;;;;5088781;28;20277;-80
2021/12/21 11:11:32;;;;;;;5.37;4.87;;;6.10;73.80;6.10;96922.00;;;;5073971;28;20200;-80
2021/12/21 11:14:06;;;;;;;5.53;4.93;;;6.10;73.70;6.10;96923.00;;;;5074714;28;20734;-81
2021/12/21 11:16:42;;;;;;;8.90;4.80;;;7.00;74.60;6.00;96919.00;;;;5089806;28;20199;-81
2021/12/21 11:19:11;;;;;;;5.47;4.83;;;6.00;74.20;6.00;96912.00;;;;5083017;28;20219;-81
2021/12/21 11:21:40;;;;;;;7.33;4.67;;;6.00;74.20;6.00;96905.00;;;;5087707;28;20278;-81
2021/12/21 11:24:09;;;;;;;5.53;4.80;;;5.90;74.20;6.00;96891.00;;;;5078242;28;20200;-81
2021/12/21 11:26:41;;;;;;;5.87;5.07;;;6.00;74.40;6.00;96895.00;;;;5090746;28;20199;-80
2021/12/21 11:29:12;;;;;;;5.13;4.63;;;6.00;74.30;6.00;96894.00;;;;5081234;28;20592;-81
2021/12/21 11:31:43;;;;;;;5.50;4.87;;;5.90;74.40;6.00;96882.00;;;;5082123;28;20200;-81
2021/12/21 11:34:15;;;;;;;5.33;4.83;;;5.90;74.30;6.00;96887.00;;;;5075378;28;20192;-82
2021/12/21 11:39:31;;;;;;;6.17;4.50;;;5.90;73.70;5.90;96883.00;;;;5094248;28;20569;-82
2021/12/21 11:42:04;;;;;;;5.70;4.30;;;5.90;73.60;5.90;96877.00;;;;5093284;28;20207;-81
2021/12/21 11:44:41;;;;;;;4.70;4.30;;;5.90;73.50;5.90;96877.00;;;;5089554;28;20199;-82
2021/12/21 11:47:16;;;;;;;6.07;4.57;;;5.90;73.40;5.90;96878.00;;;;5089666;28;20197;-81
2021/12/21 11:49:48;;;;;;;5.47;4.80;;;5.90;73.30;5.90;96880.00;;;;5083031;28;20685;-84
2021/12/21 11:52:18;;;;;;;5.43;4.93;;;5.80;73.50;5.90;96875.00;;;;5073702;28;20204;-81
2021/12/21 11:54:50;;;;;;;5.97;5.20;;;5.90;73.60;5.90;96877.00;;;;5074245;28;20203;-81
2021/12/21 11:57:21;;;;;;;5.70;4.90;;;5.90;73.70;5.90;96868.00;;;;5075047;28;20246;-84
2021/12/21 11:59:49;;;;;;;5.43;4.90;;;5.90;73.60;5.90;96871.00;;;;5088295;28;20194;-82
2021/12/21 12:02:29;;;;;;;5.27;4.63;;;5.90;73.70;5.90;96865.00;;;;5094076;28;20196;-84
2021/12/21 12:04:58;;;;;;;5.33;4.67;;;5.90;73.50;5.90;96862.00;;;;5093363;28;20195;-83
2021/12/21 12:07:25;;;;;;;5.57;4.77;;;5.90;73.50;5.90;96869.00;;;;5093559;28;20246;-81